sensor_id;sensor_type;location;lat;lon;timestamp;pressure;altitude;pressure_sealevel;temperature;humidity
13604;BME280;24578;48.264;11.436;2023-05-11T00:00:33;95953.59;;;8.32;100.00
13604;BME280;24578;48.264;11.436;2023-05-11T00:03:55;95955.06;;;8.23;100.00
13604;BME280;24578;48.264;11.436;2023-05-11T00:07:16;95950.09;;;8.33;100.00
13604;BME280;24578;48.264;11.436;2023-05-11T00:10:38;95953.59;;;8.32;100.00
13604;BME280;24578;48.264;11.436;2023-05-11T00:14:00;95948.03;;;8.25;100.00
13604;BME280;24578;48.264;11.436;2023-05-11T00:17:22;95949.06;;;8.22;100.00
13604;BME280;24578;48.264;11.436;2023-05-11T00:20:44;95942.03;;;8.25;100.00
13604;BME280;24578;48.264;11.436;2023-05-11T00:24:07;95949.97;;;8.34;100.00
13604;BME280;24578;48.264;11.436;2023-05-11T00:27:28;95946.78;;;8.31;100.00
13604;BME280;24578;48.264;11.436;2023-05-11T00:30:57;95937.59;;;8.27;100.00
13604;BME280;24578;48.264;11.436;2023-05-11T00:34:18;95937.22;;;8.33;100.00
13604;BME280;24578;48.264;11.436;2023-05-11T00:37:40;95943.50;;;8.29;100.00
13604;BME280;24578;48.264;11.436;2023-05-11T00:41:02;95936.88;;;8.25;100.00
13604;BME280;24578;48.264;11.436;2023-05-11T00:44:24;95941.00;;;8.27;100.00
13604;BME280;24578;48.264;11.436;2023-05-11T00:47:45;95937.41;;;8.30;100.00
13604;BME280;24578;48.264;11.436;2023-05-11T00:51:09;95932.34;;;8.28;100.00
13604;BME280;24578;48.264;11.436;2023-05-11T00:54:30;95931.41;;;8.29;100.00
13604;BME280;24578;48.264;11.436;2023-05-11T00:57:52;95931.53;;;8.28;100.00
13604;BME280;24578;48.264;11.436;2023-05-11T01:01:14;95924.38;;;8.18;100.00
13604;BME280;24578;48.264;11.436;2023-05-11T01:04:38;95931.00;;;8.22;100.00
13604;BME280;24578;48.264;11.436;2023-05-11T01:08:21;95934.41;;;8.23;100.00
13604;BME280;24578;48.264;11.436;2023-05-11T01:11:55;95926.88;;;8.20;100.00
13604;BME280;24578;48.264;11.436;2023-05-11T01:15:26;95922.44;;;8.22;100.00
13604;BME280;24578;48.264;11.436;2023-05-11T01:18:58;95919.75;;;8.23;100.00
13604;BME280;24578;48.264;11.436;2023-05-11T01:29:43;95921.41;;;8.25;100.00
13604;BME280;24578;48.264;11.436;2023-05-11T01:33:10;95915.66;;;8.21;100.00
13604;BME280;24578;48.264;11.436;2023-05-11T01:36:41;95913.47;;;8.15;100.00
13604;BME280;24578;48.264;11.436;2023-05-11T01:40:12;95916.56;;;8.07;100.00
13604;BME280;24578;48.264;11.436;2023-05-11T01:43:36;95918.53;;;8.16;100.00
13604;BME280;24578;48.264;11.436;2023-05-11T01:47:01;95923.47;;;8.19;100.00
13604;BME280;24578;48.264;11.436;2023-05-11T01:50:24;95930.50;;;8.17;100.00
13604;BME280;24578;48.264;11.436;2023-05-11T01:53:47;95921.22;;;8.15;100.00
13604;BME280;24578;48.264;11.436;2023-05-11T01:57:11;95918.13;;;8.10;100.00
13604;BME280;24578;48.264;11.436;2023-05-11T02:00:35;95915.84;;;8.18;100.00
13604;BME280;24578;48.264;11.436;2023-05-11T02:04:01;95918.44;;;8.18;100.00
13604;BME280;24578;48.264;11.436;2023-05-11T02:07:26;95914.41;;;8.14;100.00
13604;BME280;24578;48.264;11.436;2023-05-11T02:10:49;95918.53;;;8.16;100.00
13604;BME280;24578;48.264;11.436;2023-05-11T02:14:12;95918.41;;;8.05;100.00
13604;BME280;24578;48.264;11.436;2023-05-11T02:17:35;95921.53;;;8.10;100.00
13604;BME280;24578;48.264;11.436;2023-05-11T02:21:00;95911.63;;;8.17;100.00
13604;BME280;24578;48.264;11.436;2023-05-11T02:24:26;95917.91;;;8.13;100.00
13604;BME280;24578;48.264;11.436;2023-05-11T02:27:50;95917.28;;;8.09;100.00
13604;BME280;24578;48.264;11.436;2023-05-11T02:31:18;95913.47;;;8.15;100.00
13604;BME280;24578;48.264;11.436;2023-05-11T02:34:47;95916.88;;;8.15;100.00
13604;BME280;24578;48.264;11.436;2023-05-11T02:38:13;95915.13;;;8.16;100.00
13604;BME280;24578;48.264;11.436;2023-05-11T02:41:42;95902.22;;;8.16;100.00
13604;BME280;24578;48.264;11.436;2023-05-11T02:45:07;95912.13;;;8.09;100.00
13604;BME280;24578;48.264;11.436;2023-05-11T02:48:37;95902.53;;;8.11;100.00
13604;BME280;24578;48.264;11.436;2023-05-11T02:52:02;95905.34;;;8.21;100.00
13604;BME280;24578;48.264;11.436;2023-05-11T02:55:27;95902.56;;;8.24;100.00
13604;BME280;24578;48.264;11.436;2023-05-11T02:58:49;95904.81;;;8.29;100.00
13604;BME280;24578;48.264;11.436;2023-05-11T03:02:11;95900.25;;;8.32;100.00
13604;BME280;24578;48.264;11.436;2023-05-11T03:05:33;95907.06;;;8.33;100.00
13604;BME280;24578;48.264;11.436;2023-05-11T03:08:55;95909.25;;;8.27;100.00
13604;BME280;24578;48.264;11.436;2023-05-11T03:12:17;95900.59;;;8.28;100.00
13604;BME280;24578;48.264;11.436;2023-05-11T03:15:40;95904.50;;;8.20;100.00
13604;BME280;24578;48.264;11.436;2023-05-11T03:19:05;95900.97;;;8.21;100.00
13604;BME280;24578;48.264;11.436;2023-05-11T03:22:29;95896.75;;;8.20;100.00
13604;BME280;24578;48.264;11.436;2023-05-11T03:25:53;95899.13;;;8.23;100.00
13604;BME280;24578;48.264;11.436;2023-05-11T03:29:16;95903.69;;;8.20;100.00
13604;BME280;24578;48.264;11.436;2023-05-11T03:32:38;95894.81;;;8.24;100.00
13604;BME280;24578;48.264;11.436;2023-05-11T03:36:02;95891.50;;;8.22;100.00
13604;BME280;24578;48.264;11.436;2023-05-11T03:39:26;95892.75;;;8.16;100.00
13604;BME280;24578;48.264;11.436;2023-05-11T03:42:54;95891.59;;;8.20;100.00
13604;BME280;24578;48.264;11.436;2023-05-11T03:46:21;95893.69;;;8.15;100.00
13604;BME280;24578;48.264;11.436;2023-05-11T03:49:45;95889.34;;;8.03;100.00
13604;BME280;24578;48.264;11.436;2023-05-11T03:53:06;95891.91;;;8.03;100.00
13604;BME280;24578;48.264;11.436;2023-05-11T03:56:28;95889.13;;;8.06;100.00
13604;BME280;24578;48.264;11.436;2023-05-11T03:59:50;95888.22;;;8.07;100.00
13604;BME280;24578;48.264;11.436;2023-05-11T04:03:12;95890.56;;;7.97;100.00
13604;BME280;24578;48.264;11.436;2023-05-11T04:06:34;95886.34;;;7.96;100.00
13604;BME280;24578;48.264;11.436;2023-05-11T04:09:56;95882.97;;;7.96;100.00
13604;BME280;24578;48.264;11.436;2023-05-11T04:13:18;95878.72;;;7.95;100.00
13604;BME280;24578;48.264;11.436;2023-05-11T04:16:40;95880.38;;;7.96;100.00
13604;BME280;24578;48.264;11.436;2023-05-11T04:20:01;95882.44;;;7.90;100.00
13604;BME280;24578;48.264;11.436;2023-05-11T04:23:23;95881.81;;;7.87;100.00
13604;BME280;24578;48.264;11.436;2023-05-11T04:26:45;95877.28;;;7.90;100.00
13604;BME280;24578;48.264;11.436;2023-05-11T04:30:07;95881.50;;;7.91;100.00
13604;BME280;24578;48.264;11.436;2023-05-11T04:33:29;95879.78;;;7.92;100.00
13604;BME280;24578;48.264;11.436;2023-05-11T04:36:51;95879.34;;;7.98;100.00
13604;BME280;24578;48.264;11.436;2023-05-11T04:40:12;95880.28;;;7.97;100.00
13604;BME280;24578;48.264;11.436;2023-05-11T04:43:34;95887.91;;;7.99;100.00
13604;BME280;24578;48.264;11.436;2023-05-11T04:46:56;95884.19;;;8.03;100.00
13604;BME280;24578;48.264;11.436;2023-05-11T04:50:18;95888.00;;;8.10;100.00
13604;BME280;24578;48.264;11.436;2023-05-11T04:53:40;95883.47;;;8.14;100.00
13604;BME280;24578;48.264;11.436;2023-05-11T04:57:01;95888.09;;;8.21;100.00
13604;BME280;24578;48.264;11.436;2023-05-11T05:00:23;95883.88;;;8.20;100.00
13604;BME280;24578;48.264;11.436;2023-05-11T05:03:47;95882.44;;;8.16;100.00
13604;BME280;24578;48.264;11.436;2023-05-11T05:07:09;95885.44;;;8.23;100.00
13604;BME280;24578;48.264;11.436;2023-05-11T05:10:31;95879.53;;;8.21;100.00
13604;BME280;24578;48.264;11.436;2023-05-11T05:13:53;95881.19;;;8.22;100.00
13604;BME280;24578;48.264;11.436;2023-05-11T05:17:15;95888.94;;;8.22;100.00
13604;BME280;24578;48.264;11.436;2023-05-11T05:20:37;95888.72;;;8.25;100.00
13604;BME280;24578;48.264;11.436;2023-05-11T05:24:00;95898.53;;;8.33;100.00
13604;BME280;24578;48.264;11.436;2023-05-11T05:27:24;95892.94;;;8.26;100.00
13604;BME280;24578;48.264;11.436;2023-05-11T05:30:46;95893.56;;;8.30;100.00
13604;BME280;24578;48.264;11.436;2023-05-11T05:34:07;95894.19;;;8.20;100.00
13604;BME280;24578;48.264;11.436;2023-05-11T05:37:29;95898.94;;;8.27;100.00
13604;BME280;24578;48.264;11.436;2023-05-11T05:40:51;95894.69;;;8.38;100.00
13604;BME280;24578;48.264;11.436;2023-05-11T05:44:13;95894.38;;;8.43;100.00
13604;BME280;24578;48.264;11.436;2023-05-11T05:47:34;95892.72;;;8.42;100.00
13604;BME280;24578;48.264;11.436;2023-05-11T05:50:56;95897.16;;;8.40;100.00
13604;BME280;24578;48.264;11.436;2023-05-11T05:54:18;95904.06;;;8.52;100.00
13604;BME280;24578;48.264;11.436;2023-05-11T05:57:40;95899.75;;;8.53;100.00
13604;BME280;24578;48.264;11.436;2023-05-11T06:01:01;95901.78;;;8.61;100.00
13604;BME280;24578;48.264;11.436;2023-05-11T06:04:23;95909.53;;;8.61;100.00
13604;BME280;24578;48.264;11.436;2023-05-11T06:07:45;95905.50;;;8.57;100.00
13604;BME280;24578;48.264;11.436;2023-05-11T06:11:07;95901.41;;;8.54;100.00
13604;BME280;24578;48.264;11.436;2023-05-11T06:14:28;95903.31;;;8.63;100.00
13604;BME280;24578;48.264;11.436;2023-05-11T06:17:50;95910.06;;;8.53;100.00
13604;BME280;24578;48.264;11.436;2023-05-11T06:21:12;95909.94;;;8.67;100.00
13604;BME280;24578;48.264;11.436;2023-05-11T06:24:34;95906.09;;;8.73;100.00
13604;BME280;24578;48.264;11.436;2023-05-11T06:27:55;95913.41;;;8.79;100.00
13604;BME280;24578;48.264;11.436;2023-05-11T06:31:17;95910.94;;;8.78;100.00
13604;BME280;24578;48.264;11.436;2023-05-11T06:34:39;95916.22;;;8.76;100.00
13604;BME280;24578;48.264;11.436;2023-05-11T06:38:01;95903.78;;;8.81;100.00
13604;BME280;24578;48.264;11.436;2023-05-11T06:41:23;95911.97;;;8.75;100.00
13604;BME280;24578;48.264;11.436;2023-05-11T06:44:45;95914.75;;;8.72;100.00
13604;BME280;24578;48.264;11.436;2023-05-11T06:48:06;95913.31;;;8.68;100.00
13604;BME280;24578;48.264;11.436;2023-05-11T06:51:28;95909.00;;;8.68;100.00
13604;BME280;24578;48.264;11.436;2023-05-11T06:54:50;95911.75;;;8.78;100.00
13604;BME280;24578;48.264;11.436;2023-05-11T06:58:12;95907.09;;;8.83;100.00
13604;BME280;24578;48.264;11.436;2023-05-11T07:01:34;95907.75;;;8.74;100.00
13604;BME280;24578;48.264;11.436;2023-05-11T07:04:55;95906.81;;;8.75;100.00
13604;BME280;24578;48.264;11.436;2023-05-11T07:08:17;95905.44;;;8.82;100.00
13604;BME280;24578;48.264;11.436;2023-05-11T07:11:39;95902.00;;;8.95;100.00
13604;BME280;24578;48.264;11.436;2023-05-11T07:15:02;95906.16;;;9.09;100.00
13604;BME280;24578;48.264;11.436;2023-05-11T07:18:24;95912.25;;;9.08;100.00
13604;BME280;24578;48.264;11.436;2023-05-11T07:21:46;95915.69;;;9.08;100.00
13604;BME280;24578;48.264;11.436;2023-05-11T07:25:08;95909.13;;;9.16;100.00
13604;BME280;24578;48.264;11.436;2023-05-11T07:28:30;95911.47;;;9.07;100.00
13604;BME280;24578;48.264;11.436;2023-05-11T07:31:51;95913.19;;;9.07;100.00
13604;BME280;24578;48.264;11.436;2023-05-11T07:35:13;95906.75;;;9.12;100.00
13604;BME280;24578;48.264;11.436;2023-05-11T07:38:35;95909.47;;;9.11;100.00
13604;BME280;24578;48.264;11.436;2023-05-11T07:41:57;95908.88;;;9.07;100.00
13604;BME280;24578;48.264;11.436;2023-05-11T07:45:19;95909.59;;;9.09;100.00
13604;BME280;24578;48.264;11.436;2023-05-11T07:48:40;95913.75;;;8.99;100.00
13604;BME280;24578;48.264;11.436;2023-05-11T07:52:02;95915.84;;;8.94;100.00
13604;BME280;24578;48.264;11.436;2023-05-11T07:55:24;95908.78;;;8.96;100.00
13604;BME280;24578;48.264;11.436;2023-05-11T07:58:45;95909.13;;;9.16;100.00
13604;BME280;24578;48.264;11.436;2023-05-11T08:02:08;95906.84;;;9.24;100.00
13604;BME280;24578;48.264;11.436;2023-05-11T08:05:29;95904.72;;;9.29;100.00
13604;BME280;24578;48.264;11.436;2023-05-11T08:08:53;95908.53;;;9.36;100.00
13604;BME280;24578;48.264;11.436;2023-05-11T08:12:15;95909.13;;;9.40;100.00
13604;BME280;24578;48.264;11.436;2023-05-11T08:15:37;95906.94;;;9.58;100.00
13604;BME280;24578;48.264;11.436;2023-05-11T08:18:58;95906.72;;;9.61;100.00
13604;BME280;24578;48.264;11.436;2023-05-11T08:22:20;95904.13;;;9.50;100.00
13604;BME280;24578;48.264;11.436;2023-05-11T08:25:51;95898.72;;;9.53;100.00
13604;BME280;24578;48.264;11.436;2023-05-11T08:29:13;95906.19;;;9.44;100.00
13604;BME280;24578;48.264;11.436;2023-05-11T08:32:35;95906.56;;;9.51;100.00
13604;BME280;24578;48.264;11.436;2023-05-11T08:35:57;95904.88;;;9.74;100.00
13604;BME280;24578;48.264;11.436;2023-05-11T08:39:20;95906.66;;;9.74;100.00
13604;BME280;24578;48.264;11.436;2023-05-11T08:42:45;95907.94;;;9.68;100.00
13604;BME280;24578;48.264;11.436;2023-05-11T08:46:10;95904.41;;;9.69;100.00
13604;BME280;24578;48.264;11.436;2023-05-11T08:49:32;95895.72;;;9.70;100.00
13604;BME280;24578;48.264;11.436;2023-05-11T08:52:55;95903.00;;;9.77;100.00
13604;BME280;24578;48.264;11.436;2023-05-11T08:56:18;95897.06;;;9.99;100.00
13604;BME280;24578;48.264;11.436;2023-05-11T08:59:44;95901.19;;;10.01;100.00
13604;BME280;24578;48.264;11.436;2023-05-11T09:03:09;95907.06;;;10.03;100.00
13604;BME280;24578;48.264;11.436;2023-05-11T09:06:32;95896.72;;;10.15;100.00
13604;BME280;24578;48.264;11.436;2023-05-11T09:09:54;95902.00;;;10.13;100.00
13604;BME280;24578;48.264;11.436;2023-05-11T09:13:17;95904.00;;;10.21;100.00
13604;BME280;24578;48.264;11.436;2023-05-11T09:16:39;95903.22;;;10.43;100.00
13604;BME280;24578;48.264;11.436;2023-05-11T09:20:04;95909.47;;;10.63;100.00
13604;BME280;24578;48.264;11.436;2023-05-11T09:23:26;95908.03;;;10.82;100.00
13604;BME280;24578;48.264;11.436;2023-05-11T09:26:48;95908.84;;;10.82;100.00
13604;BME280;24578;48.264;11.436;2023-05-11T09:30:18;95906.25;;;10.60;100.00
13604;BME280;24578;48.264;11.436;2023-05-11T09:33:40;95909.34;;;10.54;100.00
13604;BME280;24578;48.264;11.436;2023-05-11T09:37:01;95910.88;;;10.56;100.00
13604;BME280;24578;48.264;11.436;2023-05-11T09:40:24;95909.44;;;10.29;100.00
13604;BME280;24578;48.264;11.436;2023-05-11T09:43:46;95899.66;;;10.33;100.00
13604;BME280;24578;48.264;11.436;2023-05-11T09:47:15;95891.00;;;10.45;100.00
13604;BME280;24578;48.264;11.436;2023-05-11T09:50:37;95899.47;;;10.59;100.00
13604;BME280;24578;48.264;11.436;2023-05-11T09:54:00;95895.69;;;10.74;100.00
13604;BME280;24578;48.264;11.436;2023-05-11T09:57:28;95891.44;;;10.62;100.00
13604;BME280;24578;48.264;11.436;2023-05-11T10:00:52;95886.16;;;10.63;100.00
13604;BME280;24578;48.264;11.436;2023-05-11T10:04:16;95888.88;;;10.73;100.00
13604;BME280;24578;48.264;11.436;2023-05-11T10:07:38;95883.75;;;10.83;100.00
13604;BME280;24578;48.264;11.436;2023-05-11T10:11:05;95887.78;;;10.76;100.00
13604;BME280;24578;48.264;11.436;2023-05-11T10:14:29;95884.28;;;10.65;100.00
13604;BME280;24578;48.264;11.436;2023-05-11T10:17:57;95894.63;;;10.54;100.00
13604;BME280;24578;48.264;11.436;2023-05-11T10:21:20;95882.88;;;10.39;100.00
13604;BME280;24578;48.264;11.436;2023-05-11T10:24:43;95876.28;;;10.34;100.00
13604;BME280;24578;48.264;11.436;2023-05-11T10:28:05;95870.91;;;10.49;100.00
13604;BME280;24578;48.264;11.436;2023-05-11T10:31:28;95872.78;;;10.47;100.00
13604;BME280;24578;48.264;11.436;2023-05-11T10:34:50;95873.47;;;10.60;100.00
13604;BME280;24578;48.264;11.436;2023-05-11T10:38:12;95874.28;;;10.72;100.00
13604;BME280;24578;48.264;11.436;2023-05-11T10:41:47;95876.63;;;10.64;100.00
13604;BME280;24578;48.264;11.436;2023-05-11T10:49:00;95875.13;;;11.05;100.00
13604;BME280;24578;48.264;11.436;2023-05-11T11:04:11;95863.78;;;11.18;100.00
13604;BME280;24578;48.264;11.436;2023-05-11T11:07:56;95869.69;;;11.41;100.00
13604;BME280;24578;48.264;11.436;2023-05-11T11:11:34;95869.31;;;11.46;100.00
13604;BME280;24578;48.264;11.436;2023-05-11T11:15:05;95864.44;;;11.52;100.00
13604;BME280;24578;48.264;11.436;2023-05-11T11:18:31;95864.00;;;11.47;100.00
13604;BME280;24578;48.264;11.436;2023-05-11T11:21:57;95866.59;;;11.47;100.00
13604;BME280;24578;48.264;11.436;2023-05-11T11:25:55;95867.09;;;11.41;100.00
13604;BME280;24578;48.264;11.436;2023-05-11T11:29:16;95876.00;;;11.48;100.00
13604;BME280;24578;48.264;11.436;2023-05-11T11:32:38;95865.75;;;11.25;100.00
13604;BME280;24578;48.264;11.436;2023-05-11T11:36:00;95860.28;;;11.07;100.00
13604;BME280;24578;48.264;11.436;2023-05-11T11:39:24;95868.31;;;11.04;100.00
13604;BME280;24578;48.264;11.436;2023-05-11T11:42:47;95861.28;;;11.27;100.00
13604;BME280;24578;48.264;11.436;2023-05-11T11:46:25;95867.22;;;11.39;100.00
13604;BME280;24578;48.264;11.436;2023-05-11T11:49:50;95870.16;;;11.14;100.00
13604;BME280;24578;48.264;11.436;2023-05-11T11:56:57;95862.28;;;11.04;100.00
13604;BME280;24578;48.264;11.436;2023-05-11T12:00:20;95875.47;;;11.01;100.00
13604;BME280;24578;48.264;11.436;2023-05-11T12:03:45;95867.41;;;10.82;100.00
13604;BME280;24578;48.264;11.436;2023-05-11T12:07:08;95873.88;;;10.88;100.00
13604;BME280;24578;48.264;11.436;2023-05-11T12:10:30;95871.31;;;10.77;100.00
13604;BME280;24578;48.264;11.436;2023-05-11T12:13:53;95873.13;;;10.54;100.00
13604;BME280;24578;48.264;11.436;2023-05-11T12:17:23;95871.59;;;10.40;100.00
13604;BME280;24578;48.264;11.436;2023-05-11T12:20:45;95867.44;;;10.37;100.00
13604;BME280;24578;48.264;11.436;2023-05-11T12:24:07;95868.28;;;10.26;100.00
13604;BME280;24578;48.264;11.436;2023-05-11T12:27:29;95862.88;;;10.29;100.00
13604;BME280;24578;48.264;11.436;2023-05-11T12:30:54;95861.94;;;10.30;100.00
13604;BME280;24578;48.264;11.436;2023-05-11T12:34:19;95862.63;;;10.21;100.00
13604;BME280;24578;48.264;11.436;2023-05-11T12:37:44;95858.88;;;10.14;100.00
13604;BME280;24578;48.264;11.436;2023-05-11T12:41:06;95873.31;;;10.16;100.00
13604;BME280;24578;48.264;11.436;2023-05-11T12:44:28;95857.78;;;10.28;100.00
13604;BME280;24578;48.264;11.436;2023-05-11T12:47:53;95856.88;;;10.17;100.00
13604;BME280;24578;48.264;11.436;2023-05-11T12:52:07;95863.47;;;10.10;100.00
13604;BME280;24578;48.264;11.436;2023-05-11T12:55:26;95861.34;;;10.04;100.00
13604;BME280;24578;48.264;11.436;2023-05-11T12:58:48;95866.06;;;10.10;100.00
13604;BME280;24578;48.264;11.436;2023-05-11T13:02:15;95850.41;;;10.34;100.00
13604;BME280;24578;48.264;11.436;2023-05-11T13:05:37;95844.97;;;10.38;100.00
13604;BME280;24578;48.264;11.436;2023-05-11T13:09:00;95854.88;;;10.32;100.00
13604;BME280;24578;48.264;11.436;2023-05-11T13:12:23;95838.44;;;10.45;100.00
13604;BME280;24578;48.264;11.436;2023-05-11T13:15:50;95838.63;;;10.64;100.00
13604;BME280;24578;48.264;11.436;2023-05-11T13:19:12;95834.59;;;10.72;100.00
13604;BME280;24578;48.264;11.436;2023-05-11T13:22:34;95834.56;;;10.83;100.00
13604;BME280;24578;48.264;11.436;2023-05-11T13:25:56;95835.28;;;10.85;100.00
13604;BME280;24578;48.264;11.436;2023-05-11T13:29:18;95827.03;;;10.91;100.00
13604;BME280;24578;48.264;11.436;2023-05-11T13:32:40;95818.97;;;11.06;100.00
13604;BME280;24578;48.264;11.436;2023-05-11T13:36:02;95821.56;;;11.06;100.00
13604;BME280;24578;48.264;11.436;2023-05-11T13:39:24;95829.19;;;11.07;100.00
13604;BME280;24578;48.264;11.436;2023-05-11T13:42:45;95825.41;;;11.11;100.00
13604;BME280;24578;48.264;11.436;2023-05-11T13:46:07;95818.47;;;11.12;100.00
13604;BME280;24578;48.264;11.436;2023-05-11T13:49:29;95823.38;;;11.15;100.00
13604;BME280;24578;48.264;11.436;2023-05-11T13:52:51;95829.03;;;11.20;100.00
13604;BME280;24578;48.264;11.436;2023-05-11T13:56:13;95819.53;;;11.31;100.00
13604;BME280;24578;48.264;11.436;2023-05-11T13:59:35;95813.31;;;11.12;100.00
13604;BME280;24578;48.264;11.436;2023-05-11T14:02:57;95814.94;;;11.13;100.00
13604;BME280;24578;48.264;11.436;2023-05-11T14:06:21;95810.72;;;11.12;100.00
13604;BME280;24578;48.264;11.436;2023-05-11T14:09:43;95814.03;;;11.03;100.00
13604;BME280;24578;48.264;11.436;2023-05-11T14:13:08;95816.09;;;10.88;100.00
13604;BME280;24578;48.264;11.436;2023-05-11T14:16:29;95818.63;;;10.66;100.00
13604;BME280;24578;48.264;11.436;2023-05-11T14:19:51;95821.84;;;10.59;100.00
13604;BME280;24578;48.264;11.436;2023-05-11T14:23:13;95823.00;;;10.43;100.00
13604;BME280;24578;48.264;11.436;2023-05-11T14:26:35;95812.56;;;10.33;100.00
13604;BME280;24578;48.264;11.436;2023-05-11T14:29:57;95817.59;;;10.35;100.00
13604;BME280;24578;48.264;11.436;2023-05-11T14:33:20;95816.31;;;10.41;100.00
13604;BME280;24578;48.264;11.436;2023-05-11T14:36:42;95814.44;;;10.43;100.00
13604;BME280;24578;48.264;11.436;2023-05-11T14:40:04;95815.59;;;10.39;100.00
13604;BME280;24578;48.264;11.436;2023-05-11T14:43:26;95810.53;;;10.37;100.00
13604;BME280;24578;48.264;11.436;2023-05-11T14:46:48;95803.84;;;10.34;100.00
13604;BME280;24578;48.264;11.436;2023-05-11T14:50:10;95803.94;;;10.44;100.00
13604;BME280;24578;48.264;11.436;2023-05-11T14:53:32;95812.31;;;10.48;100.00
13604;BME280;24578;48.264;11.436;2023-05-11T14:56:53;95805.09;;;10.63;100.00
13604;BME280;24578;48.264;11.436;2023-05-11T15:00:15;95810.44;;;10.50;100.00
13604;BME280;24578;48.264;11.436;2023-05-11T15:03:37;95809.69;;;10.59;100.00
13604;BME280;24578;48.264;11.436;2023-05-11T15:06:59;95809.09;;;10.67;100.00
13604;BME280;24578;48.264;11.436;2023-05-11T15:10:21;95813.47;;;10.66;100.00
13604;BME280;24578;48.264;11.436;2023-05-11T15:13:43;95817.91;;;10.76;100.00
13604;BME280;24578;48.264;11.436;2023-05-11T15:17:07;95812.47;;;10.79;100.00
13604;BME280;24578;48.264;11.436;2023-05-11T15:20:29;95815.78;;;10.81;100.00
13604;BME280;24578;48.264;11.436;2023-05-11T15:23:51;95816.56;;;10.81;100.00
13604;BME280;24578;48.264;11.436;2023-05-11T15:27:13;95823.88;;;10.76;100.00
13604;BME280;24578;48.264;11.436;2023-05-11T15:30:34;95831.91;;;10.73;100.00
13604;BME280;24578;48.264;11.436;2023-05-11T15:33:56;95830.69;;;10.77;100.00
13604;BME280;24578;48.264;11.436;2023-05-11T15:37:19;95828.13;;;10.77;100.00
13604;BME280;24578;48.264;11.436;2023-05-11T15:40:41;95836.25;;;10.73;100.00
13604;BME280;24578;48.264;11.436;2023-05-11T15:44:03;95830.88;;;10.64;100.00
13604;BME280;24578;48.264;11.436;2023-05-11T15:47:25;95836.75;;;10.66;100.00
13604;BME280;24578;48.264;11.436;2023-05-11T15:50:47;95837.00;;;10.41;100.00
13604;BME280;24578;48.264;11.436;2023-05-11T15:54:08;95843.84;;;10.19;100.00
13604;BME280;24578;48.264;11.436;2023-05-11T15:57:30;95839.59;;;10.06;100.00
13604;BME280;24578;48.264;11.436;2023-05-11T16:00:52;95835.84;;;9.99;100.00
13604;BME280;24578;48.264;11.436;2023-05-11T16:04:14;95837.22;;;9.92;100.00
13604;BME280;24578;48.264;11.436;2023-05-11T16:07:36;95838.66;;;9.85;100.00
13604;BME280;24578;48.264;11.436;2023-05-11T16:10:59;95842.53;;;9.79;100.00
13604;BME280;24578;48.264;11.436;2023-05-11T16:14:20;95839.88;;;9.56;100.00
13604;BME280;24578;48.264;11.436;2023-05-11T16:17:42;95839.31;;;9.64;100.00
13604;BME280;24578;48.264;11.436;2023-05-11T16:21:04;95837.31;;;9.56;100.00
13604;BME280;24578;48.264;11.436;2023-05-11T16:24:26;95840.16;;;9.65;100.00
13604;BME280;24578;48.264;11.436;2023-05-11T16:27:50;95828.41;;;9.60;100.00
13604;BME280;24578;48.264;11.436;2023-05-11T16:31:11;95837.66;;;9.63;100.00
13604;BME280;24578;48.264;11.436;2023-05-11T16:34:33;95837.00;;;9.72;100.00
13604;BME280;24578;48.264;11.436;2023-05-11T16:37:58;95831.56;;;9.64;100.00
13604;BME280;24578;48.264;11.436;2023-05-11T16:41:20;95830.84;;;9.62;100.00
13604;BME280;24578;48.264;11.436;2023-05-11T16:44:41;95835.66;;;9.55;100.00
13604;BME280;24578;48.264;11.436;2023-05-11T16:48:05;95827.66;;;9.47;100.00
13604;BME280;24578;48.264;11.436;2023-05-11T16:51:27;95826.47;;;9.51;100.00
13604;BME280;24578;48.264;11.436;2023-05-11T16:54:49;95830.84;;;9.62;100.00
13604;BME280;24578;48.264;11.436;2023-05-11T16:58:11;95823.59;;;9.67;100.00
13604;BME280;24578;48.264;11.436;2023-05-11T17:01:33;95821.13;;;9.77;100.00
13604;BME280;24578;48.264;11.436;2023-05-11T17:04:54;95819.00;;;9.82;100.00
13604;BME280;24578;48.264;11.436;2023-05-11T17:08:16;95820.41;;;9.75;100.00
13604;BME280;24578;48.264;11.436;2023-05-11T17:11:38;95822.06;;;9.65;100.00
13604;BME280;24578;48.264;11.436;2023-05-11T17:15:00;95820.28;;;9.65;100.00
13604;BME280;24578;48.264;11.436;2023-05-11T17:18:23;95825.69;;;9.73;100.00
13604;BME280;24578;48.264;11.436;2023-05-11T17:21:45;95820.78;;;9.82;100.00
13604;BME280;24578;48.264;11.436;2023-05-11T17:25:06;95826.44;;;9.87;100.00
13604;BME280;24578;48.264;11.436;2023-05-11T17:28:29;95821.38;;;9.85;100.00
13604;BME280;24578;48.264;11.436;2023-05-11T17:31:50;95822.56;;;9.93;100.00
13604;BME280;24578;48.264;11.436;2023-05-11T17:35:12;95821.00;;;9.90;100.00
13604;BME280;24578;48.264;11.436;2023-05-11T17:38:34;95822.66;;;9.91;100.00
13604;BME280;24578;48.264;11.436;2023-05-11T17:41:56;95817.63;;;9.89;100.00
13604;BME280;24578;48.264;11.436;2023-05-11T17:45:18;95821.72;;;9.81;100.00
13604;BME280;24578;48.264;11.436;2023-05-11T17:48:40;95821.94;;;9.89;100.00
13604;BME280;24578;48.264;11.436;2023-05-11T17:52:02;95827.59;;;9.83;100.00
13604;BME280;24578;48.264;11.436;2023-05-11T17:55:23;95817.25;;;9.83;100.00
13604;BME280;24578;48.264;11.436;2023-05-11T17:58:45;95818.31;;;9.80;100.00
13604;BME280;24578;48.264;11.436;2023-05-11T18:02:08;95819.34;;;9.78;100.00